sensor_id;sensor_type;location;lat;lon;timestamp;temperature;humidity
74488;DHT22;63019;51.080;13.642;2023-03-14T00:00:13;11.20;99.90
74488;DHT22;63019;51.080;13.642;2023-03-14T00:01:18;11.10;99.90
74488;DHT22;63019;51.080;13.642;2023-03-14T00:02:22;11.10;99.90
74488;DHT22;63019;51.080;13.642;2023-03-14T00:03:24;11.10;99.90
74488;DHT22;63019;51.080;13.642;2023-03-14T00:04:26;11.10;99.90
74488;DHT22;63019;51.080;13.642;2023-03-14T00:05:29;11.10;99.90
74488;DHT22;63019;51.080;13.642;2023-03-14T00:06:32;11.10;99.90
74488;DHT22;63019;51.080;13.642;2023-03-14T00:07:36;11.10;99.90
74488;DHT22;63019;51.080;13.642;2023-03-14T00:08:39;11.10;99.90
74488;DHT22;63019;51.080;13.642;2023-03-14T00:09:42;11.10;99.90
74488;DHT22;63019;51.080;13.642;2023-03-14T00:10:44;11.10;99.90
74488;DHT22;63019;51.080;13.642;2023-03-14T00:11:46;11.10;99.90
74488;DHT22;63019;51.080;13.642;2023-03-14T00:12:48;11.10;99.90
74488;DHT22;63019;51.080;13.642;2023-03-14T00:13:50;11.10;99.90
74488;DHT22;63019;51.080;13.642;2023-03-14T00:14:53;11.10;99.90
74488;DHT22;63019;51.080;13.642;2023-03-14T00:15:54;11.10;99.90
74488;DHT22;63019;51.080;13.642;2023-03-14T00:16:56;11.10;99.90
74488;DHT22;63019;51.080;13.642;2023-03-14T00:17:58;11.10;99.90
74488;DHT22;63019;51.080;13.642;2023-03-14T00:19:00;11.00;99.90
74488;DHT22;63019;51.080;13.642;2023-03-14T00:20:05;11.10;99.90
74488;DHT22;63019;51.080;13.642;2023-03-14T00:21:11;11.00;99.90
74488;DHT22;63019;51.080;13.642;2023-03-14T00:22:13;11.10;99.90
74488;DHT22;63019;51.080;13.642;2023-03-14T00:23:15;11.10;99.90
74488;DHT22;63019;51.080;13.642;2023-03-14T00:24:17;11.00;99.90
74488;DHT22;63019;51.080;13.642;2023-03-14T00:25:19;11.10;99.90
74488;DHT22;63019;51.080;13.642;2023-03-14T00:26:21;11.00;99.90
74488;DHT22;63019;51.080;13.642;2023-03-14T00:27:23;11.00;99.90
74488;DHT22;63019;51.080;13.642;2023-03-14T00:28:24;11.00;99.90
74488;DHT22;63019;51.080;13.642;2023-03-14T00:29:26;10.90;99.90
74488;DHT22;63019;51.080;13.642;2023-03-14T00:30:28;10.90;99.90
74488;DHT22;63019;51.080;13.642;2023-03-14T00:31:30;10.90;99.90
74488;DHT22;63019;51.080;13.642;2023-03-14T00:32:32;10.90;99.90
74488;DHT22;63019;51.080;13.642;2023-03-14T00:33:34;10.80;99.90
74488;DHT22;63019;51.080;13.642;2023-03-14T00:34:36;10.80;99.90
74488;DHT22;63019;51.080;13.642;2023-03-14T00:35:38;10.70;99.90
74488;DHT22;63019;51.080;13.642;2023-03-14T00:36:40;10.70;99.90
74488;DHT22;63019;51.080;13.642;2023-03-14T00:37:41;10.60;99.90
74488;DHT22;63019;51.080;13.642;2023-03-14T00:38:45;10.60;99.90
74488;DHT22;63019;51.080;13.642;2023-03-14T00:39:47;10.60;99.90
74488;DHT22;63019;51.080;13.642;2023-03-14T00:40:50;10.60;99.90
74488;DHT22;63019;51.080;13.642;2023-03-14T00:41:51;10.70;99.90
74488;DHT22;63019;51.080;13.642;2023-03-14T00:42:53;10.60;99.90
74488;DHT22;63019;51.080;13.642;2023-03-14T00:43:55;10.60;99.90
74488;DHT22;63019;51.080;13.642;2023-03-14T00:44:57;10.60;99.90
74488;DHT22;63019;51.080;13.642;2023-03-14T00:45:59;10.50;99.90
74488;DHT22;63019;51.080;13.642;2023-03-14T00:47:01;10.50;99.90
74488;DHT22;63019;51.080;13.642;2023-03-14T00:48:03;10.50;99.90
74488;DHT22;63019;51.080;13.642;2023-03-14T00:49:05;10.50;99.90
74488;DHT22;63019;51.080;13.642;2023-03-14T00:50:07;10.50;99.90
74488;DHT22;63019;51.080;13.642;2023-03-14T00:51:09;10.50;99.90
74488;DHT22;63019;51.080;13.642;2023-03-14T00:52:12;10.50;99.90
74488;DHT22;63019;51.080;13.642;2023-03-14T00:53:14;10.50;99.90
74488;DHT22;63019;51.080;13.642;2023-03-14T00:54:17;10.50;99.90
74488;DHT22;63019;51.080;13.642;2023-03-14T00:55:18;10.40;99.90
74488;DHT22;63019;51.080;13.642;2023-03-14T00:56:20;10.40;99.90
74488;DHT22;63019;51.080;13.642;2023-03-14T00:57:22;10.40;99.90
74488;DHT22;63019;51.080;13.642;2023-03-14T00:58:24;10.40;99.90
74488;DHT22;63019;51.080;13.642;2023-03-14T00:59:26;10.40;99.90
74488;DHT22;63019;51.080;13.642;2023-03-14T01:00:27;10.40;99.90
74488;DHT22;63019;51.080;13.642;2023-03-14T01:01:29;10.40;99.90
74488;DHT22;63019;51.080;13.642;2023-03-14T01:02:31;10.30;99.90
74488;DHT22;63019;51.080;13.642;2023-03-14T01:03:33;10.40;99.90
74488;DHT22;63019;51.080;13.642;2023-03-14T01:04:35;10.30;99.90
74488;DHT22;63019;51.080;13.642;2023-03-14T01:05:39;10.30;99.90
74488;DHT22;63019;51.080;13.642;2023-03-14T01:06:41;10.30;99.90
74488;DHT22;63019;51.080;13.642;2023-03-14T01:07:43;10.30;99.90
74488;DHT22;63019;51.080;13.642;2023-03-14T01:08:45;10.30;99.90
74488;DHT22;63019;51.080;13.642;2023-03-14T01:09:49;10.40;99.90
74488;DHT22;63019;51.080;13.642;2023-03-14T01:10:52;10.30;99.90
74488;DHT22;63019;51.080;13.642;2023-03-14T01:11:54;10.30;99.90
74488;DHT22;63019;51.080;13.642;2023-03-14T01:12:56;10.30;99.90
74488;DHT22;63019;51.080;13.642;2023-03-14T01:13:58;10.30;99.90
74488;DHT22;63019;51.080;13.642;2023-03-14T01:14:59;10.30;99.90
74488;DHT22;63019;51.080;13.642;2023-03-14T01:16:03;10.30;99.90
74488;DHT22;63019;51.080;13.642;2023-03-14T01:17:07;10.20;99.90
74488;DHT22;63019;51.080;13.642;2023-03-14T01:18:09;10.20;99.90
74488;DHT22;63019;51.080;13.642;2023-03-14T01:19:10;10.20;99.90
74488;DHT22;63019;51.080;13.642;2023-03-14T01:20:14;10.20;99.90
74488;DHT22;63019;51.080;13.642;2023-03-14T01:21:22;10.20;99.90
74488;DHT22;63019;51.080;13.642;2023-03-14T01:22:24;10.20;99.90
74488;DHT22;63019;51.080;13.642;2023-03-14T01:23:26;10.20;99.90
74488;DHT22;63019;51.080;13.642;2023-03-14T01:24:28;10.10;99.90
74488;DHT22;63019;51.080;13.642;2023-03-14T01:25:30;10.10;99.90
74488;DHT22;63019;51.080;13.642;2023-03-14T01:26:34;10.10;99.90
74488;DHT22;63019;51.080;13.642;2023-03-14T01:27:36;10.10;99.90
74488;DHT22;63019;51.080;13.642;2023-03-14T01:28:38;10.10;99.90
74488;DHT22;63019;51.080;13.642;2023-03-14T01:29:40;10.20;99.90
74488;DHT22;63019;51.080;13.642;2023-03-14T01:30:42;10.20;99.90
74488;DHT22;63019;51.080;13.642;2023-03-14T01:31:43;10.20;99.90
74488;DHT22;63019;51.080;13.642;2023-03-14T01:32:45;10.30;99.90
74488;DHT22;63019;51.080;13.642;2023-03-14T01:33:47;10.30;99.90
74488;DHT22;63019;51.080;13.642;2023-03-14T01:34:49;10.40;99.90
74488;DHT22;63019;51.080;13.642;2023-03-14T01:35:51;10.40;99.90
74488;DHT22;63019;51.080;13.642;2023-03-14T01:36:53;10.40;99.90
74488;DHT22;63019;51.080;13.642;2023-03-14T01:37:55;10.50;99.90
74488;DHT22;63019;51.080;13.642;2023-03-14T01:38:56;10.50;99.90
74488;DHT22;63019;51.080;13.642;2023-03-14T01:39:58;10.50;99.90
74488;DHT22;63019;51.080;13.642;2023-03-14T01:41:01;10.60;99.90
74488;DHT22;63019;51.080;13.642;2023-03-14T01:42:03;10.60;99.90
74488;DHT22;63019;51.080;13.642;2023-03-14T01:43:12;10.70;99.90
74488;DHT22;63019;51.080;13.642;2023-03-14T01:44:14;10.70;99.90
74488;DHT22;63019;51.080;13.642;2023-03-14T01:46:55;10.70;99.90
74488;DHT22;63019;51.080;13.642;2023-03-14T01:47:57;10.70;99.90
74488;DHT22;63019;51.080;13.642;2023-03-14T01:50:12;10.80;99.90
74488;DHT22;63019;51.080;13.642;2023-03-14T01:52:45;10.80;99.90
74488;DHT22;63019;51.080;13.642;2023-03-14T01:53:50;10.90;99.90
74488;DHT22;63019;51.080;13.642;2023-03-14T01:55:07;10.80;99.90
74488;DHT22;63019;51.080;13.642;2023-03-14T01:56:12;10.80;99.90
74488;DHT22;63019;51.080;13.642;2023-03-14T01:57:43;10.80;99.90
74488;DHT22;63019;51.080;13.642;2023-03-14T01:58:48;10.90;99.90
74488;DHT22;63019;51.080;13.642;2023-03-14T02:00:07;11.00;99.90
74488;DHT22;63019;51.080;13.642;2023-03-14T02:04:29;11.00;99.90
74488;DHT22;63019;51.080;13.642;2023-03-14T02:05:34;11.00;99.90
74488;DHT22;63019;51.080;13.642;2023-03-14T02:06:51;11.00;99.90
74488;DHT22;63019;51.080;13.642;2023-03-14T02:07:59;11.00;99.90
74488;DHT22;63019;51.080;13.642;2023-03-14T02:09:02;11.10;99.90
74488;DHT22;63019;51.080;13.642;2023-03-14T02:10:05;11.10;99.90
74488;DHT22;63019;51.080;13.642;2023-03-14T02:11:08;11.10;99.90
74488;DHT22;63019;51.080;13.642;2023-03-14T02:12:11;11.10;99.90
74488;DHT22;63019;51.080;13.642;2023-03-14T02:13:17;11.10;99.90
74488;DHT22;63019;51.080;13.642;2023-03-14T02:14:31;11.10;99.90
74488;DHT22;63019;51.080;13.642;2023-03-14T02:15:34;11.10;99.90
74488;DHT22;63019;51.080;13.642;2023-03-14T02:16:36;11.10;99.90
74488;DHT22;63019;51.080;13.642;2023-03-14T02:17:38;11.10;99.90
74488;DHT22;63019;51.080;13.642;2023-03-14T02:18:42;11.10;99.90
74488;DHT22;63019;51.080;13.642;2023-03-14T02:21:26;11.20;99.90
74488;DHT22;63019;51.080;13.642;2023-03-14T02:22:29;11.20;99.90
74488;DHT22;63019;51.080;13.642;2023-03-14T02:25:48;11.30;99.90
74488;DHT22;63019;51.080;13.642;2023-03-14T02:27:11;11.30;99.90
74488;DHT22;63019;51.080;13.642;2023-03-14T02:28:13;11.30;99.90
74488;DHT22;63019;51.080;13.642;2023-03-14T02:29:16;11.30;99.90
74488;DHT22;63019;51.080;13.642;2023-03-14T02:31:22;11.40;99.90
74488;DHT22;63019;51.080;13.642;2023-03-14T02:32:25;11.30;99.90
74488;DHT22;63019;51.080;13.642;2023-03-14T02:33:28;11.30;99.90
74488;DHT22;63019;51.080;13.642;2023-03-14T02:34:30;11.30;99.90
74488;DHT22;63019;51.080;13.642;2023-03-14T02:35:46;11.30;99.90
74488;DHT22;63019;51.080;13.642;2023-03-14T02:36:48;11.30;99.90
74488;DHT22;63019;51.080;13.642;2023-03-14T02:40:03;11.30;99.90
74488;DHT22;63019;51.080;13.642;2023-03-14T02:41:06;11.40;99.90
74488;DHT22;63019;51.080;13.642;2023-03-14T02:42:08;11.40;99.90
74488;DHT22;63019;51.080;13.642;2023-03-14T02:43:10;11.40;99.90
74488;DHT22;63019;51.080;13.642;2023-03-14T02:44:12;11.40;99.90
74488;DHT22;63019;51.080;13.642;2023-03-14T02:46:20;11.50;99.90
74488;DHT22;63019;51.080;13.642;2023-03-14T02:47:27;11.50;99.90
74488;DHT22;63019;51.080;13.642;2023-03-14T02:48:38;11.60;99.90
74488;DHT22;63019;51.080;13.642;2023-03-14T02:49:41;11.60;99.90
74488;DHT22;63019;51.080;13.642;2023-03-14T02:50:45;11.70;99.90
74488;DHT22;63019;51.080;13.642;2023-03-14T02:51:47;11.70;99.90
74488;DHT22;63019;51.080;13.642;2023-03-14T02:52:49;11.80;99.90
74488;DHT22;63019;51.080;13.642;2023-03-14T02:53:51;11.80;99.90
74488;DHT22;63019;51.080;13.642;2023-03-14T02:54:53;11.80;99.90
74488;DHT22;63019;51.080;13.642;2023-03-14T02:55:55;11.80;99.90
74488;DHT22;63019;51.080;13.642;2023-03-14T02:56:57;11.80;99.90
74488;DHT22;63019;51.080;13.642;2023-03-14T02:57:58;11.80;99.90
74488;DHT22;63019;51.080;13.642;2023-03-14T02:59:03;11.80;99.90
74488;DHT22;63019;51.080;13.642;2023-03-14T03:00:05;11.90;99.90
74488;DHT22;63019;51.080;13.642;2023-03-14T03:01:07;11.90;99.90
74488;DHT22;63019;51.080;13.642;2023-03-14T03:02:09;11.90;99.90
74488;DHT22;63019;51.080;13.642;2023-03-14T03:03:12;11.90;99.90
74488;DHT22;63019;51.080;13.642;2023-03-14T03:04:13;11.80;99.90
74488;DHT22;63019;51.080;13.642;2023-03-14T03:05:15;11.80;99.90
74488;DHT22;63019;51.080;13.642;2023-03-14T03:06:17;11.90;99.90
74488;DHT22;63019;51.080;13.642;2023-03-14T03:07:19;11.90;99.90
74488;DHT22;63019;51.080;13.642;2023-03-14T03:08:24;11.90;99.90
74488;DHT22;63019;51.080;13.642;2023-03-14T03:09:27;11.90;99.90
74488;DHT22;63019;51.080;13.642;2023-03-14T03:10:29;11.90;99.90
74488;DHT22;63019;51.080;13.642;2023-03-14T03:11:31;11.90;99.90
74488;DHT22;63019;51.080;13.642;2023-03-14T03:12:33;11.80;99.90
74488;DHT22;63019;51.080;13.642;2023-03-14T03:13:35;11.80;99.90
74488;DHT22;63019;51.080;13.642;2023-03-14T03:14:37;11.80;99.90
74488;DHT22;63019;51.080;13.642;2023-03-14T03:15:39;11.80;99.90
74488;DHT22;63019;51.080;13.642;2023-03-14T03:16:41;11.70;99.90
74488;DHT22;63019;51.080;13.642;2023-03-14T03:17:43;11.70;99.90
74488;DHT22;63019;51.080;13.642;2023-03-14T03:18:45;11.70;99.90
74488;DHT22;63019;51.080;13.642;2023-03-14T03:19:47;11.70;99.90
74488;DHT22;63019;51.080;13.642;2023-03-14T03:20:49;11.70;99.90
74488;DHT22;63019;51.080;13.642;2023-03-14T03:21:51;11.60;99.90
74488;DHT22;63019;51.080;13.642;2023-03-14T03:22:52;11.70;99.90
74488;DHT22;63019;51.080;13.642;2023-03-14T03:23:54;11.70;99.90
74488;DHT22;63019;51.080;13.642;2023-03-14T03:24:56;11.70;99.90
74488;DHT22;63019;51.080;13.642;2023-03-14T03:25:58;11.60;99.90
74488;DHT22;63019;51.080;13.642;2023-03-14T03:27:00;11.60;99.90
74488;DHT22;63019;51.080;13.642;2023-03-14T03:28:01;11.60;99.90
74488;DHT22;63019;51.080;13.642;2023-03-14T03:29:03;11.60;99.90
74488;DHT22;63019;51.080;13.642;2023-03-14T03:30:06;11.50;99.90
74488;DHT22;63019;51.080;13.642;2023-03-14T03:31:10;11.50;99.90
74488;DHT22;63019;51.080;13.642;2023-03-14T03:32:12;11.50;99.90
74488;DHT22;63019;51.080;13.642;2023-03-14T03:33:14;11.40;99.90
74488;DHT22;63019;51.080;13.642;2023-03-14T03:34:16;11.40;99.90
74488;DHT22;63019;51.080;13.642;2023-03-14T03:35:18;11.40;99.90
74488;DHT22;63019;51.080;13.642;2023-03-14T03:36:24;11.30;99.90
74488;DHT22;63019;51.080;13.642;2023-03-14T03:37:26;11.30;99.90
74488;DHT22;63019;51.080;13.642;2023-03-14T03:38:28;11.30;99.90
74488;DHT22;63019;51.080;13.642;2023-03-14T03:39:30;11.20;99.90
74488;DHT22;63019;51.080;13.642;2023-03-14T03:40:31;11.30;99.90
74488;DHT22;63019;51.080;13.642;2023-03-14T03:41:33;11.30;99.90
74488;DHT22;63019;51.080;13.642;2023-03-14T03:42:36;11.20;99.90
74488;DHT22;63019;51.080;13.642;2023-03-14T03:43:38;11.30;99.90
74488;DHT22;63019;51.080;13.642;2023-03-14T03:44:40;11.30;99.90
74488;DHT22;63019;51.080;13.642;2023-03-14T03:45:41;11.30;99.90
74488;DHT22;63019;51.080;13.642;2023-03-14T03:46:43;11.30;99.90
74488;DHT22;63019;51.080;13.642;2023-03-14T03:47:45;11.30;99.90
74488;DHT22;63019;51.080;13.642;2023-03-14T03:48:47;11.30;99.90
74488;DHT22;63019;51.080;13.642;2023-03-14T03:49:49;11.30;99.90
74488;DHT22;63019;51.080;13.642;2023-03-14T03:50:51;11.30;99.90
74488;DHT22;63019;51.080;13.642;2023-03-14T03:51:53;11.30;99.90
74488;DHT22;63019;51.080;13.642;2023-03-14T03:52:54;11.40;99.90
74488;DHT22;63019;51.080;13.642;2023-03-14T03:53:56;11.40;99.90
74488;DHT22;63019;51.080;13.642;2023-03-14T03:54:58;11.30;99.90
74488;DHT22;63019;51.080;13.642;2023-03-14T03:56:00;11.30;99.90
74488;DHT22;63019;51.080;13.642;2023-03-14T03:57:03;11.40;99.90
74488;DHT22;63019;51.080;13.642;2023-03-14T03:58:05;11.30;99.90
74488;DHT22;63019;51.080;13.642;2023-03-14T03:59:07;11.30;99.90
74488;DHT22;63019;51.080;13.642;2023-03-14T04:00:10;11.30;99.90
74488;DHT22;63019;51.080;13.642;2023-03-14T04:01:14;11.30;99.90
74488;DHT22;63019;51.080;13.642;2023-03-14T04:02:15;11.30;99.90
74488;DHT22;63019;51.080;13.642;2023-03-14T04:03:17;11.30;99.90
74488;DHT22;63019;51.080;13.642;2023-03-14T04:04:19;11.30;99.90
74488;DHT22;63019;51.080;13.642;2023-03-14T04:05:21;11.40;99.90
74488;DHT22;63019;51.080;13.642;2023-03-14T04:06:23;11.40;99.90
74488;DHT22;63019;51.080;13.642;2023-03-14T04:07:25;11.50;99.90
74488;DHT22;63019;51.080;13.642;2023-03-14T04:08:27;11.40;99.90
74488;DHT22;63019;51.080;13.642;2023-03-14T04:09:29;11.40;99.90
74488;DHT22;63019;51.080;13.642;2023-03-14T04:10:34;11.40;99.90
74488;DHT22;63019;51.080;13.642;2023-03-14T04:11:37;11.40;99.90
74488;DHT22;63019;51.080;13.642;2023-03-14T04:12:38;11.40;99.90
74488;DHT22;63019;51.080;13.642;2023-03-14T04:13:40;11.40;99.90
74488;DHT22;63019;51.080;13.642;2023-03-14T04:14:42;11.50;99.90
74488;DHT22;63019;51.080;13.642;2023-03-14T04:15:44;11.40;99.90
74488;DHT22;63019;51.080;13.642;2023-03-14T04:16:46;11.40;99.90
74488;DHT22;63019;51.080;13.642;2023-03-14T04:17:48;11.40;99.90
74488;DHT22;63019;51.080;13.642;2023-03-14T04:18:50;11.40;99.90
74488;DHT22;63019;51.080;13.642;2023-03-14T04:19:52;11.40;99.90
74488;DHT22;63019;51.080;13.642;2023-03-14T04:20:56;11.40;99.90
74488;DHT22;63019;51.080;13.642;2023-03-14T04:21:59;11.50;99.90
74488;DHT22;63019;51.080;13.642;2023-03-14T04:23:00;11.40;99.90
74488;DHT22;63019;51.080;13.642;2023-03-14T04:24:02;11.50;99.90
74488;DHT22;63019;51.080;13.642;2023-03-14T04:25:05;11.40;99.90
74488;DHT22;63019;51.080;13.642;2023-03-14T04:26:07;11.50;99.90
74488;DHT22;63019;51.080;13.642;2023-03-14T04:27:09;11.50;99.90
74488;DHT22;63019;51.080;13.642;2023-03-14T04:28:11;11.40;99.90
74488;DHT22;63019;51.080;13.642;2023-03-14T04:29:12;11.40;99.90
74488;DHT22;63019;51.080;13.642;2023-03-14T04:30:14;11.40;99.90
74488;DHT22;63019;51.080;13.642;2023-03-14T04:31:18;11.40;99.90
74488;DHT22;63019;51.080;13.642;2023-03-14T04:32:21;11.40;99.90
74488;DHT22;63019;51.080;13.642;2023-03-14T04:33:23;11.40;99.90
74488;DHT22;63019;51.080;13.642;2023-03-14T04:34:24;11.40;99.90
74488;DHT22;63019;51.080;13.642;2023-03-14T04:35:26;11.40;99.90
74488;DHT22;63019;51.080;13.642;2023-03-14T04:36:28;11.40;99.90
74488;DHT22;63019;51.080;13.642;2023-03-14T04:37:30;11.40;99.90
74488;DHT22;63019;51.080;13.642;2023-03-14T04:38:32;11.40;99.90
74488;DHT22;63019;51.080;13.642;2023-03-14T04:39:34;11.40;99.90
74488;DHT22;63019;51.080;13.642;2023-03-14T04:40:40;11.40;99.90
74488;DHT22;63019;51.080;13.642;2023-03-14T04:41:43;11.40;99.90
74488;DHT22;63019;51.080;13.642;2023-03-14T04:42:45;11.40;99.90
74488;DHT22;63019;51.080;13.642;2023-03-14T04:43:47;11.50;99.90
74488;DHT22;63019;51.080;13.642;2023-03-14T04:44:49;11.50;99.90
74488;DHT22;63019;51.080;13.642;2023-03-14T04:45:54;11.40;99.90
74488;DHT22;63019;51.080;13.642;2023-03-14T04:46:56;11.40;99.90
74488;DHT22;63019;51.080;13.642;2023-03-14T04:47:57;11.40;99.90
74488;DHT22;63019;51.080;13.642;2023-03-14T04:48:59;11.40;99.90
74488;DHT22;63019;51.080;13.642;2023-03-14T04:50:01;11.40;99.90
74488;DHT22;63019;51.080;13.642;2023-03-14T04:51:04;11.40;99.90
74488;DHT22;63019;51.080;13.642;2023-03-14T04:52:05;11.40;99.90
74488;DHT22;63019;51.080;13.642;2023-03-14T04:53:07;11.30;99.90
74488;DHT22;63019;51.080;13.642;2023-03-14T04:54:09;11.30;99.90
74488;DHT22;63019;51.080;13.642;2023-03-14T04:55:11;11.30;99.90
74488;DHT22;63019;51.080;13.642;2023-03-14T04:56:13;11.30;99.90
74488;DHT22;63019;51.080;13.642;2023-03-14T04:57:15;11.30;99.90
74488;DHT22;63019;51.080;13.642;2023-03-14T04:58:17;11.30;99.90
74488;DHT22;63019;51.080;13.642;2023-03-14T04:59:19;11.30;99.90
74488;DHT22;63019;51.080;13.642;2023-03-14T05:00:21;11.30;99.90
74488;DHT22;63019;51.080;13.642;2023-03-14T05:01:22;11.30;99.90
74488;DHT22;63019;51.080;13.642;2023-03-14T05:02:25;11.20;99.90
74488;DHT22;63019;51.080;13.642;2023-03-14T05:03:26;11.20;99.90
74488;DHT22;63019;51.080;13.642;2023-03-14T05:04:28;11.20;99.90
74488;DHT22;63019;51.080;13.642;2023-03-14T05:05:30;11.20;99.90
74488;DHT22;63019;51.080;13.642;2023-03-14T05:06:32;11.20;99.90
74488;DHT22;63019;51.080;13.642;2023-03-14T05:07:34;11.20;99.90
74488;DHT22;63019;51.080;13.642;2023-03-14T05:08:36;11.20;99.90
74488;DHT22;63019;51.080;13.642;2023-03-14T05:09:38;11.20;99.90
74488;DHT22;63019;51.080;13.642;2023-03-14T05:10:40;11.20;99.90
74488;DHT22;63019;51.080;13.642;2023-03-14T05:11:42;11.20;99.90
74488;DHT22;63019;51.080;13.642;2023-03-14T05:12:43;11.20;99.90
74488;DHT22;63019;51.080;13.642;2023-03-14T05:13:45;11.20;99.90
74488;DHT22;63019;51.080;13.642;2023-03-14T05:14:47;11.20;99.90
74488;DHT22;63019;51.080;13.642;2023-03-14T05:15:49;11.20;99.90
74488;DHT22;63019;51.080;13.642;2023-03-14T05:16:52;11.20;99.90
74488;DHT22;63019;51.080;13.642;2023-03-14T05:17:54;11.30;99.90
74488;DHT22;63019;51.080;13.642;2023-03-14T05:18:55;11.20;99.90
74488;DHT22;63019;51.080;13.642;2023-03-14T05:19:57;11.10;99.90
74488;DHT22;63019;51.080;13.642;2023-03-14T05:20:59;11.10;99.90
74488;DHT22;63019;51.080;13.642;2023-03-14T05:22:01;11.10;99.90
74488;DHT22;63019;51.080;13.642;2023-03-14T05:23:03;11.10;99.90
74488;DHT22;63019;51.080;13.642;2023-03-14T05:24:05;11.10;99.90
74488;DHT22;63019;51.080;13.642;2023-03-14T05:25:08;11.10;99.90
74488;DHT22;63019;51.080;13.642;2023-03-14T05:26:11;11.10;99.90
74488;DHT22;63019;51.080;13.642;2023-03-14T05:27:15;11.10;99.90
74488;DHT22;63019;51.080;13.642;2023-03-14T05:28:16;11.10;99.90
74488;DHT22;63019;51.080;13.642;2023-03-14T05:29:18;11.10;99.90
74488;DHT22;63019;51.080;13.642;2023-03-14T05:30:20;11.10;99.90
74488;DHT22;63019;51.080;13.642;2023-03-14T05:31:23;11.10;99.90
74488;DHT22;63019;51.080;13.642;2023-03-14T05:32:25;11.10;99.90
74488;DHT22;63019;51.080;13.642;2023-03-14T05:33:27;11.10;99.90
74488;DHT22;63019;51.080;13.642;2023-03-14T05:34:28;11.00;99.90
74488;DHT22;63019;51.080;13.642;2023-03-14T05:35:30;11.10;99.90
74488;DHT22;63019;51.080;13.642;2023-03-14T05:36:32;11.00;99.90
74488;DHT22;63019;51.080;13.642;2023-03-14T05:37:34;11.10;99.90
74488;DHT22;63019;51.080;13.642;2023-03-14T05:38:36;11.00;99.90
74488;DHT22;63019;51.080;13.642;2023-03-14T05:39:38;11.00;99.90
74488;DHT22;63019;51.080;13.642;2023-03-14T05:40:40;11.00;99.90
74488;DHT22;63019;51.080;13.642;2023-03-14T05:41:41;11.00;99.90
74488;DHT22;63019;51.080;13.642;2023-03-14T05:42:43;11.00;99.90
74488;DHT22;63019;51.080;13.642;2023-03-14T05:43:45;10.90;99.90
74488;DHT22;63019;51.080;13.642;2023-03-14T05:44:47;10.90;99.90
74488;DHT22;63019;51.080;13.642;2023-03-14T05:45:49;10.90;99.90
74488;DHT22;63019;51.080;13.642;2023-03-14T05:46:50;10.90;99.90
74488;DHT22;63019;51.080;13.642;2023-03-14T05:47:52;10.90;99.90
74488;DHT22;63019;51.080;13.642;2023-03-14T05:48:54;10.90;99.90
74488;DHT22;63019;51.080;13.642;2023-03-14T05:49:56;10.90;99.90
74488;DHT22;63019;51.080;13.642;2023-03-14T05:50:58;10.90;99.90
74488;DHT22;63019;51.080;13.642;2023-03-14T05:52:00;10.90;99.90
74488;DHT22;63019;51.080;13.642;2023-03-14T05:53:03;10.80;99.90
74488;DHT22;63019;51.080;13.642;2023-03-14T05:54:04;10.80;99.90
74488;DHT22;63019;51.080;13.642;2023-03-14T05:55:06;10.90;99.90
74488;DHT22;63019;51.080;13.642;2023-03-14T05:56:09;10.80;99.90
74488;DHT22;63019;51.080;13.642;2023-03-14T05:57:10;10.90;99.90
74488;DHT22;63019;51.080;13.642;2023-03-14T05:58:12;10.80;99.90
74488;DHT22;63019;51.080;13.642;2023-03-14T05:59:14;10.80;99.90
74488;DHT22;63019;51.080;13.642;2023-03-14T06:00:17;10.80;99.90
74488;DHT22;63019;51.080;13.642;2023-03-14T06:01:19;10.80;99.90
74488;DHT22;63019;51.080;13.642;2023-03-14T06:02:20;10.70;99.90
74488;DHT22;63019;51.080;13.642;2023-03-14T06:03:22;10.70;99.90
74488;DHT22;63019;51.080;13.642;2023-03-14T06:04:25;10.70;99.90
74488;DHT22;63019;51.080;13.642;2023-03-14T06:05:26;10.70;99.90
74488;DHT22;63019;51.080;13.642;2023-03-14T06:06:28;10.70;99.90
74488;DHT22;63019;51.080;13.642;2023-03-14T06:07:30;10.70;99.90
74488;DHT22;63019;51.080;13.642;2023-03-14T06:08:32;10.80;99.90
74488;DHT22;63019;51.080;13.642;2023-03-14T06:09:34;10.80;99.90
74488;DHT22;63019;51.080;13.642;2023-03-14T06:10:36;10.70;99.90
74488;DHT22;63019;51.080;13.642;2023-03-14T06:11:39;10.70;99.90
74488;DHT22;63019;51.080;13.642;2023-03-14T06:12:40;10.70;99.90
74488;DHT22;63019;51.080;13.642;2023-03-14T06:13:42;10.70;99.90
74488;DHT22;63019;51.080;13.642;2023-03-14T06:14:44;10.80;99.90
74488;DHT22;63019;51.080;13.642;2023-03-14T06:15:46;10.80;99.90
74488;DHT22;63019;51.080;13.642;2023-03-14T06:16:48;10.70;99.90
74488;DHT22;63019;51.080;13.642;2023-03-14T06:17:50;10.70;99.90
74488;DHT22;63019;51.080;13.642;2023-03-14T06:18:52;10.70;99.90
74488;DHT22;63019;51.080;13.642;2023-03-14T06:19:54;10.80;99.90
74488;DHT22;63019;51.080;13.642;2023-03-14T06:20:56;10.80;99.90
74488;DHT22;63019;51.080;13.642;2023-03-14T06:21:58;10.90;99.90
74488;DHT22;63019;51.080;13.642;2023-03-14T06:23:00;10.90;99.90
74488;DHT22;63019;51.080;13.642;2023-03-14T06:24:02;10.90;99.90
74488;DHT22;63019;51.080;13.642;2023-03-14T06:25:05;11.00;99.90
74488;DHT22;63019;51.080;13.642;2023-03-14T06:26:07;11.00;99.90
74488;DHT22;63019;51.080;13.642;2023-03-14T06:27:09;11.00;99.90
74488;DHT22;63019;51.080;13.642;2023-03-14T06:28:11;11.00;99.90
74488;DHT22;63019;51.080;13.642;2023-03-14T06:29:12;11.00;99.90
74488;DHT22;63019;51.080;13.642;2023-03-14T06:30:15;11.00;99.90
74488;DHT22;63019;51.080;13.642;2023-03-14T06:31:17;11.00;99.90
74488;DHT22;63019;51.080;13.642;2023-03-14T06:32:19;11.00;99.90
74488;DHT22;63019;51.080;13.642;2023-03-14T06:33:22;11.10;99.90
74488;DHT22;63019;51.080;13.642;2023-03-14T06:34:24;11.10;99.90
74488;DHT22;63019;51.080;13.642;2023-03-14T06:35:25;11.10;99.90
74488;DHT22;63019;51.080;13.642;2023-03-14T06:36:27;11.10;99.90
74488;DHT22;63019;51.080;13.642;2023-03-14T06:37:29;11.10;99.90
74488;DHT22;63019;51.080;13.642;2023-03-14T06:38:32;11.20;99.90
74488;DHT22;63019;51.080;13.642;2023-03-14T06:39:34;11.20;99.90
74488;DHT22;63019;51.080;13.642;2023-03-14T06:40:35;11.20;99.90
74488;DHT22;63019;51.080;13.642;2023-03-14T06:41:37;11.20;99.90
74488;DHT22;63019;51.080;13.642;2023-03-14T06:42:39;11.20;99.90
74488;DHT22;63019;51.080;13.642;2023-03-14T06:43:41;11.20;99.90
74488;DHT22;63019;51.080;13.642;2023-03-14T06:44:43;11.20;99.90